createdAt,value
2022-11-29T00:01:50.646Z,101048.78
2022-11-29T00:04:53.598Z,101042.81
2022-11-29T00:07:56.171Z,101037.34
2022-11-29T00:11:04.993Z,101046.22
2022-11-29T00:14:10.894Z,101040.09
2022-11-29T00:17:13.847Z,101048.75
2022-11-29T00:20:18.836Z,101044.19
2022-11-29T00:23:21.740Z,101035.22
2022-11-29T00:26:24.671Z,101037.72
2022-11-29T00:29:28.161Z,101042.22
2022-11-29T00:32:30.747Z,101041.41
2022-11-29T00:35:33.731Z,101037.00
2022-11-29T00:38:36.659Z,101038.03
2022-11-29T00:41:40.184Z,101040.53
2022-11-29T00:44:43.079Z,101034.03
2022-11-29T00:47:46.085Z,101031.38
2022-11-29T00:50:48.705Z,101035.22
2022-11-29T00:53:51.611Z,101038.16
2022-11-29T00:56:54.651Z,101030.81
2022-11-29T00:59:57.555Z,101033.50
2022-11-29T01:03:00.204Z,101039.34
2022-11-29T01:06:09.079Z,101031.78
2022-11-29T01:09:11.732Z,101028.94
2022-11-29T01:12:14.672Z,101034.31
2022-11-29T01:15:17.990Z,101034.38
2022-11-29T01:18:20.950Z,101033.84
2022-11-29T01:21:24.559Z,101030.88
2022-11-29T01:24:28.834Z,101034.59
2022-11-29T01:27:31.652Z,101040.84
2022-11-29T01:30:34.775Z,101029.31
2022-11-29T01:33:37.539Z,101031.16
2022-11-29T01:36:40.498Z,101031.75
2022-11-29T01:39:43.094Z,101026.56
2022-11-29T01:42:46.044Z,101029.44
2022-11-29T01:45:49.725Z,101031.06
2022-11-29T01:48:57.119Z,101029.66
2022-11-29T01:52:14.486Z,101021.31
2022-11-29T01:55:18.350Z,101022.06
2022-11-29T01:58:21.738Z,101026.13
2022-11-29T02:01:25.272Z,101013.91
2022-11-29T02:04:34.971Z,101018.09
2022-11-29T02:07:38.241Z,101011.03
2022-11-29T02:11:04.867Z,101007.09
2022-11-29T02:14:49.625Z,101011.53
2022-11-29T02:18:04.626Z,101000.72
2022-11-29T02:21:07.556Z,101010.91
2022-11-29T02:24:31.638Z,101008.03
2022-11-29T02:28:12.781Z,101013.16
2022-11-29T02:31:28.018Z,101013.34
2022-11-29T02:34:33.991Z,101002.06
2022-11-29T02:38:33.635Z,101009.87
2022-11-29T02:41:55.185Z,101020.72
2022-11-29T02:45:19.208Z,101015.06
2022-11-29T02:49:01.139Z,101016.72
2022-11-29T02:52:22.302Z,101007.47
2022-11-29T02:55:35.956Z,101016.94
2022-11-29T02:59:01.297Z,101007.53
2022-11-29T03:02:45.530Z,101010.16
2022-11-29T03:06:02.387Z,101016.19
2022-11-29T03:09:22.042Z,101009.41
2022-11-29T03:12:44.810Z,101022.22
2022-11-29T03:16:10.564Z,101019.16
2022-11-29T03:19:34.693Z,101010.75
2022-11-29T03:23:09.527Z,101017.47
2022-11-29T03:26:24.618Z,101008.44
2022-11-29T03:29:35.123Z,101012.75
2022-11-29T03:32:57.276Z,101014.34
2022-11-29T03:36:10.562Z,101000.59
2022-11-29T03:39:25.252Z,100999.06
2022-11-29T03:42:48.554Z,101008.22
2022-11-29T03:46:05.074Z,101009.19
2022-11-29T03:49:41.075Z,101011.88
2022-11-29T03:52:58.103Z,101013.94
2022-11-29T03:56:03.570Z,101003.81
2022-11-29T03:59:21.361Z,101013.28
2022-11-29T04:02:41.175Z,101007.22
2022-11-29T04:05:58.910Z,101013.66
2022-11-29T04:09:27.090Z,101009.41
2022-11-29T04:13:08.011Z,101007.44
2022-11-29T04:16:19.559Z,101009.09
2022-11-29T04:19:37.583Z,101004.59
2022-11-29T04:23:12.475Z,101012.16
2022-11-29T04:26:52.687Z,101015.31
2022-11-29T04:30:08.138Z,101016.25
2022-11-29T04:33:19.797Z,101013.84
2022-11-29T04:36:25.006Z,101021.81
2022-11-29T04:39:57.530Z,101016.06
2022-11-29T04:43:33.530Z,101017.94
2022-11-29T04:47:15.925Z,101021.59
2022-11-29T04:50:24.786Z,101027.56
2022-11-29T04:53:39.330Z,101032.19
2022-11-29T04:56:50.214Z,101022.88
2022-11-29T05:00:11.557Z,101040.03
2022-11-29T05:03:27.784Z,101040.41
2022-11-29T05:06:56.892Z,101032.72
2022-11-29T05:10:20.813Z,101055.13
2022-11-29T05:13:51.250Z,101051.34
2022-11-29T05:17:19.983Z,101057.31
2022-11-29T05:20:36.391Z,101052.91
2022-11-29T05:24:03.251Z,101058.75
2022-11-29T05:27:16.385Z,101057.28
2022-11-29T05:30:22.651Z,101065.75
2022-11-29T05:34:23.957Z,101063.59
2022-11-29T05:38:10.954Z,101073.00
2022-11-29T05:41:28.848Z,101081.56
2022-11-29T05:44:44.463Z,101072.06
2022-11-29T05:47:59.518Z,101070.06
2022-11-29T05:51:40.850Z,101072.91
2022-11-29T05:54:57.215Z,101078.47
2022-11-29T05:58:30.054Z,101083.47
2022-11-29T06:02:13.361Z,101077.47
2022-11-29T06:05:24.117Z,101084.59
2022-11-29T06:09:28.354Z,101081.16
2022-11-29T06:12:35.971Z,101084.63
2022-11-29T06:15:57.921Z,101078.94
2022-11-29T06:19:09.595Z,101083.53
2022-11-29T06:22:59.293Z,101089.75
2022-11-29T06:26:29.389Z,101095.00
2022-11-29T06:30:12.798Z,101099.59
2022-11-29T06:33:24.348Z,101108.69
2022-11-29T06:36:52.993Z,101106.00
2022-11-29T06:39:56.410Z,101110.19
2022-11-29T06:42:59.128Z,101112.69
2022-11-29T06:46:12.730Z,101119.13
2022-11-29T06:49:30.732Z,101110.75
2022-11-29T06:52:36.639Z,101115.75
2022-11-29T06:55:48.486Z,101113.31
2022-11-29T06:59:16.967Z,101104.72
2022-11-29T07:02:51.125Z,101103.50
2022-11-29T07:05:54.615Z,101113.75
2022-11-29T07:09:02.067Z,101118.50
2022-11-29T07:12:05.389Z,101114.41
2022-11-29T07:15:15.459Z,101110.16
2022-11-29T07:18:18.302Z,101109.38
2022-11-29T07:21:42.179Z,101103.91
2022-11-29T07:25:00.532Z,101104.87
2022-11-29T07:28:35.223Z,101105.56
2022-11-29T07:31:47.278Z,101100.81
2022-11-29T07:34:55.719Z,101093.94
2022-11-29T07:38:23.976Z,101100.25
2022-11-29T07:41:37.483Z,101092.69
2022-11-29T07:44:46.723Z,101097.87
2022-11-29T07:47:50.273Z,101101.84
2022-11-29T07:50:55.230Z,101108.34
2022-11-29T07:53:57.859Z,101110.69
2022-11-29T07:57:00.783Z,101118.41
2022-11-29T08:00:04.850Z,101111.16
2022-11-29T08:03:14.063Z,101118.22
2022-11-29T08:06:23.066Z,101123.53
2022-11-29T08:09:25.745Z,101119.13
2022-11-29T08:12:28.798Z,101118.50
2022-11-29T08:15:31.463Z,101118.59
2022-11-29T08:18:36.534Z,101119.81
2022-11-29T08:21:39.597Z,101117.97
2022-11-29T08:24:42.645Z,101121.50
2022-11-29T08:27:45.453Z,101121.22
2022-11-29T08:30:48.441Z,101122.88
2022-11-29T08:33:51.073Z,101125.81
2022-11-29T08:36:56.384Z,101118.69
2022-11-29T08:39:59.066Z,101127.56
2022-11-29T08:43:01.943Z,101131.06
2022-11-29T08:46:04.955Z,101127.81
2022-11-29T08:49:10.737Z,101123.78
2022-11-29T08:52:32.064Z,101123.12
2022-11-29T08:55:40.742Z,101115.53
2022-11-29T08:58:43.341Z,101117.44
2022-11-29T09:01:46.697Z,101112.72
2022-11-29T09:04:49.406Z,101110.53
2022-11-29T09:07:52.340Z,101108.84
2022-11-29T09:10:55.046Z,101103.09
2022-11-29T09:14:01.563Z,101106.62
2022-11-29T09:17:04.172Z,101112.31
2022-11-29T09:20:08.376Z,101115.37
2022-11-29T09:23:12.063Z,101117.28
2022-11-29T09:26:19.948Z,101112.97
2022-11-29T09:29:22.945Z,101104.00
2022-11-29T09:32:25.901Z,101107.69
2022-11-29T09:35:30.448Z,101107.59
2022-11-29T09:38:34.167Z,101086.97
2022-11-29T09:41:55.757Z,101096.47
2022-11-29T09:45:18.604Z,101100.47
2022-11-29T09:48:32.314Z,101112.78
2022-11-29T09:52:09.050Z,101097.00
2022-11-29T09:55:23.812Z,101099.62
2022-11-29T09:58:34.311Z,101091.56
2022-11-29T10:01:58.572Z,101098.28
2022-11-29T10:05:12.081Z,101113.22
2022-11-29T10:08:17.407Z,101112.19
2022-11-29T10:11:36.450Z,101105.97
2022-11-29T10:14:48.286Z,101097.44
2022-11-29T10:18:05.413Z,101098.37
2022-11-29T10:21:14.443Z,101092.38
2022-11-29T10:24:21.142Z,101093.91
2022-11-29T10:27:25.089Z,101085.69
2022-11-29T10:30:27.993Z,101084.81
2022-11-29T10:33:35.334Z,101077.94
2022-11-29T10:36:54.854Z,101078.53
2022-11-29T10:40:04.517Z,101064.09
2022-11-29T10:43:09.085Z,101059.72
2022-11-29T10:46:30.279Z,101065.28
2022-11-29T10:49:36.308Z,101049.75
2022-11-29T10:52:39.407Z,101066.44
2022-11-29T10:56:06.090Z,101074.16
2022-11-29T10:59:21.031Z,101064.44
2022-11-29T11:02:24.623Z,101038.16
2022-11-29T11:05:27.502Z,101070.19
2022-11-29T11:08:32.772Z,101080.94
2022-11-29T11:11:35.771Z,101068.00
2022-11-29T11:14:38.970Z,101074.59
2022-11-29T11:17:59.680Z,101069.19
2022-11-29T11:21:03.956Z,101060.00
2022-11-29T11:24:23.586Z,101066.34
2022-11-29T11:27:44.652Z,101061.06
2022-11-29T11:30:58.144Z,101062.06
2022-11-29T11:34:29.122Z,101064.03
2022-11-29T11:37:33.424Z,101071.37
2022-11-29T11:40:36.503Z,101063.47
2022-11-29T11:43:40.074Z,101062.69
2022-11-29T11:46:49.296Z,101049.41
2022-11-29T11:50:04.383Z,101061.81
2022-11-29T11:53:20.239Z,101056.78
2022-11-29T11:56:24.312Z,101060.19
2022-11-29T11:59:28.040Z,101059.41
2022-11-29T12:02:40.079Z,101061.91
2022-11-29T12:05:46.293Z,101057.91
2022-11-29T12:08:51.190Z,101068.25
2022-11-29T12:12:18.812Z,101057.47
2022-11-29T12:15:28.766Z,101058.03
2022-11-29T12:18:42.267Z,101057.50
2022-11-29T12:21:52.646Z,101057.09
2022-11-29T12:25:02.458Z,101059.94
2022-11-29T12:28:11.839Z,101048.78
2022-11-29T12:31:36.092Z,101048.47
2022-11-29T12:35:00.099Z,101040.22
2022-11-29T12:38:40.407Z,101031.88
2022-11-29T12:42:00.854Z,101036.44
2022-11-29T12:45:15.543Z,101043.53
2022-11-29T12:48:37.146Z,101041.97
2022-11-29T12:51:54.874Z,101043.13
2022-11-29T12:55:17.776Z,101028.88
2022-11-29T12:58:46.865Z,101030.37
2022-11-29T13:02:18.392Z,101037.63
2022-11-29T13:05:33.821Z,101029.56
2022-11-29T13:09:04.205Z,101026.19
2022-11-29T13:12:10.172Z,101018.72
2022-11-29T13:15:35.496Z,101023.94
2022-11-29T13:19:00.103Z,101026.28
2022-11-29T13:22:21.352Z,101030.09
2022-11-29T13:25:45.528Z,101034.19
2022-11-29T13:28:49.071Z,101035.81
2022-11-29T13:31:52.076Z,101022.78
2022-11-29T13:34:59.115Z,101031.44
2022-11-29T13:38:18.311Z,101025.91
2022-11-29T13:41:45.857Z,101042.66
2022-11-29T13:44:54.837Z,101039.12
2022-11-29T13:48:02.094Z,101044.44
2022-11-29T13:51:29.819Z,101047.47
2022-11-29T13:54:34.418Z,101049.16
2022-11-29T14:01:20.709Z,101050.53
2022-11-29T14:04:49.888Z,101060.75
2022-11-29T14:08:26.587Z,101054.06
2022-11-29T14:11:42.987Z,101064.88
2022-11-29T14:14:53.718Z,101057.56
2022-11-29T14:18:02.917Z,101061.09
2022-11-29T14:21:05.654Z,101056.06
2022-11-29T14:24:35.261Z,101061.97
2022-11-29T14:27:55.504Z,101056.97
2022-11-29T14:31:02.018Z,101052.84
2022-11-29T14:34:16.994Z,101056.50
2022-11-29T14:37:30.030Z,101051.25
2022-11-29T14:40:41.955Z,101065.31
2022-11-29T14:43:45.118Z,101063.47
2022-11-29T14:46:49.215Z,101067.56
2022-11-29T14:49:55.767Z,101058.94
2022-11-29T14:52:59.147Z,101057.69
2022-11-29T14:56:45.121Z,101055.94
2022-11-29T14:59:51.785Z,101057.69
2022-11-29T15:03:00.741Z,101039.12
2022-11-29T15:06:08.519Z,101045.03
2022-11-29T15:09:20.731Z,101047.88
2022-11-29T15:12:28.838Z,101053.72
2022-11-29T15:15:49.798Z,101059.06
2022-11-29T15:19:13.310Z,101049.34
2022-11-29T15:22:40.715Z,101057.34
2022-11-29T15:25:48.992Z,101055.84
2022-11-29T15:28:52.032Z,101078.72
2022-11-29T15:32:04.971Z,101071.50
2022-11-29T15:35:18.359Z,101067.34
2022-11-29T15:38:23.210Z,101063.47
2022-11-29T15:41:35.609Z,101062.88
2022-11-29T15:44:44.747Z,101068.09
2022-11-29T15:47:47.891Z,101070.28
2022-11-29T15:50:55.986Z,101080.72
2022-11-29T15:54:13.102Z,101079.00
2022-11-29T15:57:22.718Z,101075.00
2022-11-29T16:00:28.213Z,101073.47
2022-11-29T16:03:33.938Z,101064.28
2022-11-29T16:06:42.506Z,101068.06
2022-11-29T16:09:51.738Z,101068.88
2022-11-29T16:13:01.214Z,101081.50
2022-11-29T16:16:25.875Z,101082.84
2022-11-29T16:19:28.463Z,101077.03
2022-11-29T16:22:32.329Z,101079.69
2022-11-29T16:25:54.112Z,101073.47
2022-11-29T16:29:00.118Z,101076.53
2022-11-29T16:32:36.946Z,101079.91
2022-11-29T16:35:40.272Z,101077.72
2022-11-29T16:39:23.170Z,101085.53
2022-11-29T16:42:28.107Z,101088.75
2022-11-29T16:45:33.344Z,101093.19
2022-11-29T16:48:38.478Z,101088.13
2022-11-29T16:51:50.078Z,101085.63
2022-11-29T16:54:53.062Z,101080.72
2022-11-29T16:57:55.848Z,101080.41
2022-11-29T17:00:58.863Z,101091.34
2022-11-29T17:04:01.912Z,101092.34
2022-11-29T17:07:07.787Z,101090.34
2022-11-29T17:10:15.391Z,101090.84
2022-11-29T17:13:19.288Z,101083.91
2022-11-29T17:16:23.988Z,101087.72
2022-11-29T17:19:28.839Z,101090.34
2022-11-29T17:22:31.670Z,101087.78
2022-11-29T17:25:34.551Z,101076.81
2022-11-29T17:28:37.272Z,101080.47
2022-11-29T17:31:42.726Z,101079.09
2022-11-29T17:34:45.842Z,101075.81
2022-11-29T17:37:49.026Z,101072.16
2022-11-29T17:40:51.764Z,101071.50
2022-11-29T17:43:56.732Z,101074.59
2022-11-29T17:46:59.467Z,101065.28
2022-11-29T17:50:02.554Z,101073.31
2022-11-29T17:53:06.629Z,101076.41
2022-11-29T17:56:15.451Z,101069.25
2022-11-29T17:59:18.887Z,101066.91
2022-11-29T18:02:22.917Z,101073.72
2022-11-29T18:05:34.157Z,101073.41
2022-11-29T18:08:42.831Z,101067.00
2022-11-29T18:11:49.038Z,101064.59
2022-11-29T18:14:52.468Z,101061.53
2022-11-29T18:17:55.592Z,101062.09
2022-11-29T18:21:00.321Z,101072.84
2022-11-29T18:24:08.123Z,101064.44
2022-11-29T18:27:11.386Z,101070.84
2022-11-29T18:30:15.097Z,101076.47
2022-11-29T18:33:18.300Z,101073.69
2022-11-29T18:36:32.957Z,101076.59
2022-11-29T18:39:35.767Z,101069.44
2022-11-29T18:42:38.978Z,101073.69
2022-11-29T18:45:41.833Z,101078.13
2022-11-29T18:48:46.927Z,101084.37
2022-11-29T18:51:50.145Z,101068.06
2022-11-29T18:54:54.063Z,101080.38
2022-11-29T18:57:56.853Z,101077.47
2022-11-29T19:01:12.361Z,101073.72
2022-11-29T19:04:20.757Z,101075.75
2022-11-29T19:07:24.010Z,101076.56
2022-11-29T19:10:26.974Z,101080.53
2022-11-29T19:13:29.898Z,101083.75
2022-11-29T19:16:34.928Z,101073.41
2022-11-29T19:19:38.363Z,101082.62
2022-11-29T19:22:40.930Z,101089.28
2022-11-29T19:25:44.678Z,101079.28
2022-11-29T19:28:48.388Z,101089.28
2022-11-29T19:31:51.643Z,101093.81
2022-11-29T19:34:54.662Z,101092.88
2022-11-29T19:37:57.900Z,101097.69
2022-11-29T19:41:27.184Z,101093.41
2022-11-29T19:44:35.873Z,101087.19
2022-11-29T19:47:51.345Z,101088.50
2022-11-29T19:50:54.504Z,101089.47
2022-11-29T19:54:00.681Z,101083.91
2022-11-29T19:57:03.667Z,101094.37
2022-11-29T20:00:07.659Z,101093.50
2022-11-29T20:03:14.830Z,101095.84
2022-11-29T20:06:19.099Z,101083.44
2022-11-29T20:09:24.293Z,101081.19
2022-11-29T20:12:32.859Z,101087.06
2022-11-29T20:15:35.728Z,101086.88
2022-11-29T20:18:45.718Z,101081.41
2022-11-29T20:21:52.295Z,101079.31
2022-11-29T20:24:56.079Z,101063.97
2022-11-29T20:28:04.200Z,101073.00
2022-11-29T20:31:13.085Z,101071.59
2022-11-29T20:34:16.035Z,101065.13
2022-11-29T20:37:36.340Z,101054.81
2022-11-29T20:41:02.306Z,101056.81
2022-11-29T20:44:06.131Z,101051.63
2022-11-29T20:47:21.045Z,101045.56
2022-11-29T20:50:25.546Z,101045.66
2022-11-29T20:53:42.083Z,101051.69
2022-11-29T20:56:45.223Z,101050.78
2022-11-29T20:59:48.073Z,101054.78
2022-11-29T21:02:51.222Z,101049.22
2022-11-29T21:05:56.031Z,101048.38
2022-11-29T21:08:59.263Z,101060.34
2022-11-29T21:12:01.989Z,101051.22
2022-11-29T21:15:05.919Z,101063.94
2022-11-29T21:18:26.540Z,101052.97
2022-11-29T21:21:39.880Z,101055.06
2022-11-29T21:24:57.875Z,101063.22
2022-11-29T21:28:01.728Z,101066.19
2022-11-29T21:31:04.876Z,101062.50
2022-11-29T21:34:08.860Z,101062.12
2022-11-29T21:37:11.594Z,101063.06
2022-11-29T21:40:14.923Z,101059.09
2022-11-29T21:43:17.619Z,101058.56
2022-11-29T21:46:20.578Z,101051.72
2022-11-29T21:49:23.188Z,101060.06
2022-11-29T21:52:26.106Z,101049.03
2022-11-29T21:55:32.122Z,101047.84
2022-11-29T21:58:36.782Z,101044.03
2022-11-29T22:01:40.156Z,101049.66
2022-11-29T22:04:43.235Z,101049.56
2022-11-29T22:07:45.854Z,101046.97
2022-11-29T22:10:48.785Z,101046.66
2022-11-29T22:14:12.279Z,101036.13
2022-11-29T22:17:15.178Z,101048.66
2022-11-29T22:20:17.775Z,101045.66
2022-11-29T22:23:20.628Z,101043.25
2022-11-29T22:26:23.254Z,101045.25
2022-11-29T22:29:26.570Z,101047.47
2022-11-29T22:32:29.108Z,101039.03
2022-11-29T22:35:32.039Z,101040.72
2022-11-29T22:38:35.003Z,101031.50
2022-11-29T22:41:39.208Z,101041.44
2022-11-29T22:44:41.779Z,101042.75
2022-11-29T22:47:44.589Z,101042.84
2022-11-29T22:50:47.388Z,101040.41
2022-11-29T22:53:55.374Z,101038.75
2022-11-29T22:56:57.986Z,101032.91
2022-11-29T23:00:00.856Z,101032.91
2022-11-29T23:03:04.343Z,101032.31
2022-11-29T23:06:13.159Z,101032.84
2022-11-29T23:09:21.315Z,101024.97
2022-11-29T23:12:24.718Z,101024.59
2022-11-29T23:15:27.326Z,101011.78
2022-11-29T23:18:30.870Z,101011.88
2022-11-29T23:21:36.318Z,100996.50
2022-11-29T23:24:40.895Z,101005.94
2022-11-29T23:27:43.515Z,101010.13
2022-11-29T23:30:46.471Z,101008.97
2022-11-29T23:33:49.694Z,101003.94
2022-11-29T23:36:53.294Z,100999.41
2022-11-29T23:39:56.199Z,100998.06
2022-11-29T23:42:59.285Z,100999.22
2022-11-29T23:46:15.215Z,100998.09
2022-11-29T23:49:18.266Z,100992.31
2022-11-29T23:52:20.842Z,100999.72
2022-11-29T23:55:24.743Z,100992.34
2022-11-29T23:58:28.981Z,100996.78
